Time;durP1;ratioP1;P1;durP2;ratioP2;P2;SDS_P1;SDS_P2;PMS_P1;PMS_P2;Temp;Humidity;BMP_temperature;BMP_pressure;BME280_temperature;BME280_humidity;BME280_pressure;Samples;Min_cycle;Max_cycle;Signal;HPM_P1;HPM_P2
2022/08/28 00:02:04;;;;;;;3.53;2.33;;;;;;;15.87;100.00;95392.09;5097640;28;20044;-76
2022/08/28 00:04:30;;;;;;;4.30;2.45;;;;;;;15.81;100.00;95395.97;5092172;28;20036;-76
2022/08/28 00:06:55;;;;;;;4.88;2.30;;;;;;;15.77;100.00;95388.59;5089872;28;20387;-76
2022/08/28 00:09:21;;;;;;;4.03;2.22;;;;;;;15.75;100.00;95396.06;5088388;28;20124;-76
2022/08/28 00:11:48;;;;;;;3.58;2.35;;;;;;;15.74;100.00;95389.16;5084529;28;20070;-76
2022/08/28 00:14:13;;;;;;;5.30;2.17;;;;;;;15.68;100.00;95390.41;5083479;28;20514;-76
2022/08/28 00:16:39;;;;;;;4.72;2.38;;;;;;;15.65;100.00;95391.00;5091819;28;20070;-77
2022/08/28 00:19:05;;;;;;;3.75;2.40;;;;;;;15.65;100.00;95380.41;5090924;28;20074;-77
2022/08/28 00:21:32;;;;;;;3.70;2.20;;;;;;;15.65;100.00;95383.06;5088267;28;20524;-77
2022/08/28 00:23:58;;;;;;;3.75;2.25;;;;;;;15.69;100.00;95381.38;5098777;28;20460;-77
2022/08/28 00:29:08;;;;;;;5.60;2.00;;;;;;;15.74;100.00;95383.88;5092842;28;20039;-76
2022/08/28 00:31:38;;;;;;;5.03;2.22;;;;;;;15.73;100.00;95387.63;5091523;28;20524;-76
2022/08/28 00:34:07;;;;;;;4.25;2.55;;;;;;;15.69;100.00;95381.38;5090336;28;20068;-76
2022/08/28 00:36:34;;;;;;;3.67;2.20;;;;;;;15.77;100.00;95383.28;5090859;28;20058;-77
2022/08/28 00:39:00;;;;;;;5.05;2.30;;;;;;;15.79;100.00;95384.84;5093025;28;20047;-77
2022/08/28 00:41:30;;;;;;;5.38;2.55;;;;;;;15.82;100.00;95384.28;5086255;28;20046;-76
2022/08/28 00:44:14;;;;;;;4.78;2.47;;;;;;;15.73;100.00;95379.66;5092375;28;20044;-76
2022/08/28 00:46:42;;;;;;;3.42;2.35;;;;;;;15.76;100.00;95380.94;5090246;28;20412;-76
2022/08/28 00:49:08;;;;;;;3.90;2.47;;;;;;;15.76;100.00;95383.59;5086078;28;20089;-76
2022/08/28 00:54:21;;;;;;;3.38;2.15;;;;;;;15.85;100.00;95384.44;5090078;28;20032;-77
2022/08/28 00:56:48;;;;;;;4.05;2.10;;;;;;;15.89;100.00;95387.28;5099483;28;20164;-77
2022/08/28 00:59:18;;;;;;;4.25;2.42;;;;;;;15.92;100.00;95384.78;5089356;28;20043;-77
2022/08/28 01:01:45;;;;;;;3.30;2.20;;;;;;;15.93;100.00;95374.94;5098738;28;20150;-76
2022/08/28 01:04:15;;;;;;;4.28;2.58;;;;;;;15.94;100.00;95379.16;5088453;28;20032;-76
2022/08/28 01:06:42;;;;;;;4.00;2.30;;;;;;;15.93;100.00;95380.22;5087763;28;20047;-76
2022/08/28 01:09:10;;;;;;;3.92;2.28;;;;;;;15.95;100.00;95378.06;5085129;28;20465;-76
2022/08/28 01:11:39;;;;;;;5.70;2.50;;;;;;;15.91;100.00;95387.72;5104104;28;20550;-76
2022/08/28 01:14:05;;;;;;;3.92;2.47;;;;;;;15.92;100.00;95373.38;5088905;28;20036;-76
2022/08/28 01:16:31;;;;;;;4.05;2.40;;;;;;;16.00;100.00;95369.19;5089653;28;20043;-75
2022/08/28 01:18:59;;;;;;;4.00;2.22;;;;;;;16.00;100.00;95367.31;5099199;27;20044;-76
2022/08/28 01:21:32;;;;;;;8.07;2.97;;;;;;;15.94;100.00;95365.88;5085917;28;20134;-76
2022/08/28 01:24:06;;;;;;;4.40;2.67;;;;;;;15.82;100.00;95368.34;5088807;28;20379;-75
2022/08/28 01:26:32;;;;;;;4.30;2.63;;;;;;;15.85;100.00;95367.75;5084747;28;20039;-76
2022/08/28 01:28:59;;;;;;;4.97;2.70;;;;;;;15.89;100.00;95374.00;5090615;28;20040;-76
2022/08/28 01:31:28;;;;;;;4.35;2.63;;;;;;;15.95;100.00;95372.78;5084121;28;20132;-75
2022/08/28 01:33:53;;;;;;;4.28;2.72;;;;;;;16.03;100.00;95366.72;5087188;28;20114;-76
2022/08/28 01:36:19;;;;;;;5.50;3.00;;;;;;;16.00;100.00;95374.50;5089052;28;20123;-76
2022/08/28 01:38:48;;;;;;;6.97;3.08;;;;;;;15.96;100.00;95371.69;5089452;28;20038;-76
2022/08/28 01:41:15;;;;;;;3.83;2.80;;;;;;;15.99;100.00;95373.72;5094266;28;20114;-75
2022/08/28 01:43:42;;;;;;;5.70;3.10;;;;;;;16.04;100.00;95370.91;5081128;28;20071;-76
2022/08/28 01:46:08;;;;;;;5.78;2.72;;;;;;;16.10;100.00;95369.69;5099394;28;20047;-75
2022/08/28 01:48:38;;;;;;;4.45;2.42;;;;;;;16.20;100.00;95373.16;5090463;28;20456;-76
2022/08/28 01:51:05;;;;;;;4.90;2.92;;;;;;;16.24;100.00;95374.09;5085926;28;20062;-76
2022/08/28 01:53:31;;;;;;;6.07;3.00;;;;;;;16.30;100.00;95375.53;5088802;28;20039;-76
2022/08/28 01:55:58;;;;;;;5.55;3.10;;;;;;;16.24;100.00;95368.78;5091126;28;20498;-76
2022/08/28 01:58:24;;;;;;;4.20;2.80;;;;;;;16.25;100.00;95371.13;5082268;28;20043;-76
2022/08/28 02:00:51;;;;;;;6.03;3.00;;;;;;;16.16;100.00;95372.19;5090228;28;20044;-76
2022/08/28 02:03:18;;;;;;;4.80;2.95;;;;;;;16.18;100.00;95375.34;5088410;28;20125;-76
2022/08/28 02:05:44;;;;;;;5.43;2.92;;;;;;;16.10;100.00;95369.69;5089788;28;20062;-76
2022/08/28 02:08:11;;;;;;;4.70;3.28;;;;;;;15.94;100.00;95365.88;5093912;28;20039;-76
2022/08/28 02:10:38;;;;;;;6.00;3.20;;;;;;;16.02;100.00;95365.13;5094636;28;20036;-77
2022/08/28 02:13:05;;;;;;;7.25;3.45;;;;;;;16.24;100.00;95368.78;5088603;28;20152;-76
2022/08/28 02:15:34;;;;;;;7.88;3.30;;;;;;;16.28;100.00;95372.41;5085059;28;20032;-76
2022/08/28 02:18:00;;;;;;;7.45;3.35;;;;;;;16.28;100.00;95369.75;5091945;28;20044;-76
2022/08/28 02:20:27;;;;;;;5.75;3.05;;;;;;;16.19;100.00;95360.97;5088027;28;20071;-76
2022/08/28 02:22:54;;;;;;;5.20;3.40;;;;;;;16.24;100.00;95369.56;5088463;28;20040;-76
2022/08/28 02:25:21;;;;;;;5.32;3.00;;;;;;;16.26;100.00;95372.72;5090725;28;22027;-76
2022/08/28 02:27:46;;;;;;;5.38;3.65;;;;;;;16.26;100.00;95366.59;5095814;28;20509;-76
2022/08/28 02:30:14;;;;;;;5.43;3.42;;;;;;;16.22;100.00;95363.78;5091325;28;20142;-76
2022/08/28 02:32:40;;;;;;;6.78;3.30;;;;;;;16.18;100.00;95359.41;5093953;28;20039;-76
2022/08/28 02:35:08;;;;;;;5.45;2.90;;;;;;;16.13;100.00;95373.59;5087604;28;20063;-76
2022/08/28 02:37:34;;;;;;;7.72;3.60;;;;;;;16.03;100.00;95358.75;5096655;28;20047;-76
2022/08/28 02:40:00;;;;;;;4.85;3.10;;;;;;;16.10;100.00;95364.41;5097368;28;20497;-76
2022/08/28 02:42:25;;;;;;;5.32;2.80;;;;;;;16.24;100.00;95366.13;5087078;28;20178;-76
2022/08/28 02:44:51;;;;;;;12.27;3.03;;;;;;;16.18;100.00;95364.72;5086036;28;20048;-76
2022/08/28 02:47:17;;;;;;;7.68;3.25;;;;;;;16.21;100.00;95364.09;5094090;28;20087;-76
2022/08/28 02:49:43;;;;;;;5.07;3.20;;;;;;;16.19;100.00;95360.97;5098523;28;20529;-76
2022/08/28 02:52:09;;;;;;;7.40;2.90;;;;;;;16.21;100.00;95364.09;5091652;28;20040;-76
2022/08/28 02:54:38;;;;;;;5.32;3.08;;;;;;;16.19;100.00;95355.66;5089241;28;20494;-76
2022/08/28 02:57:07;;;;;;;6.53;3.30;;;;;;;16.11;100.00;95371.25;5091232;28;20043;-76
2022/08/28 02:59:35;;;;;;;4.30;2.97;;;;;;;16.13;100.00;95362.19;5086676;28;20512;-76
2022/08/28 03:02:02;;;;;;;7.22;3.20;;;;;;;16.13;100.00;95364.84;5085991;28;20071;-76
2022/08/28 03:04:30;;;;;;;7.57;3.05;;;;;;;16.18;100.00;95370.03;5081557;28;20097;-77
2022/08/28 03:06:57;;;;;;;4.68;2.85;;;;;;;16.10;100.00;95364.41;5091751;28;20426;-77
2022/08/28 03:09:22;;;;;;;6.45;3.58;;;;;;;16.02;100.00;95367.78;5092293;28;20040;-76
2022/08/28 03:11:48;;;;;;;5.65;3.50;;;;;;;16.07;100.00;95359.69;5085947;28;20043;-76
2022/08/28 03:14:13;;;;;;;7.32;3.28;;;;;;;16.11;100.00;95360.63;5088800;28;20506;-76
2022/08/28 03:16:39;;;;;;;5.25;3.45;;;;;;;16.17;100.00;95358.63;5089955;28;20043;-76
2022/08/28 03:19:04;;;;;;;4.68;2.90;;;;;;;16.12;100.00;95356.13;5091570;28;20127;-76
2022/08/28 03:21:30;;;;;;;6.50;3.67;;;;;;;16.14;100.00;95363.78;5094801;28;20036;-76
2022/08/28 03:23:55;;;;;;;8.93;3.30;;;;;;;16.17;100.00;95363.16;5089701;28;20036;-76
2022/08/28 03:26:22;;;;;;;5.93;3.33;;;;;;;16.17;100.00;95363.16;5085989;28;20424;-76
2022/08/28 03:28:51;;;;;;;8.82;3.67;;;;;;;16.24;100.00;95368.78;5091523;28;20040;-76
2022/08/28 03:31:22;;;;;;;5.40;3.30;;;;;;;16.20;100.00;95368.63;5092002;28;20076;-76
2022/08/28 03:33:48;;;;;;;5.97;3.38;;;;;;;16.22;100.00;95366.44;5092178;28;20501;-76
2022/08/28 03:36:20;;;;;;;5.40;3.60;;;;;;;16.18;100.00;95370.03;5094398;28;20062;-76
2022/08/28 03:38:46;;;;;;;4.63;3.30;;;;;;;16.16;100.00;95372.19;5092405;28;20068;-76
2022/08/28 03:41:16;;;;;;;6.20;3.30;;;;;;;16.21;100.00;95372.06;5093908;28;20071;-76
2022/08/28 03:43:42;;;;;;;5.35;3.30;;;;;;;16.20;100.00;95375.81;5092235;28;20044;-76
2022/08/28 03:46:12;;;;;;;4.88;3.30;;;;;;;16.17;100.00;95373.78;5097330;28;20040;-75
2022/08/28 03:48:38;;;;;;;5.60;3.42;;;;;;;16.17;100.00;95373.78;5094124;28;20486;-75
2022/08/28 03:51:19;;;;;;;5.50;3.42;;;;;;;16.15;100.00;95370.63;5094980;28;20075;-76
2022/08/28 03:53:45;;;;;;;6.07;3.55;;;;;;;16.16;100.00;95378.31;5099510;28;20048;-76
2022/08/28 03:56:13;;;;;;;6.03;3.55;;;;;;;16.16;100.00;95377.50;5096233;28;20031;-76
2022/08/28 03:58:39;;;;;;;6.10;3.35;;;;;;;16.27;100.00;95384.09;5087039;28;20036;-76
2022/08/28 04:01:05;;;;;;;5.97;3.40;;;;;;;16.24;100.00;95374.09;5097553;28;20063;-77
2022/08/28 04:03:31;;;;;;;4.55;3.20;;;;;;;16.24;100.00;95384.72;5091053;28;20421;-76
2022/08/28 04:05:57;;;;;;;4.72;2.90;;;;;;;16.27;100.00;95384.09;5093415;28;20517;-77
2022/08/28 04:08:23;;;;;;;6.05;3.10;;;;;;;16.22;100.00;95385.03;5089509;28;20115;-76
2022/08/28 04:10:49;;;;;;;6.85;3.53;;;;;;;16.23;100.00;95383.16;5091230;28;20067;-77
2022/08/28 04:13:17;;;;;;;5.03;3.42;;;;;;;16.20;100.00;95384.53;5092352;28;20046;-77
2022/08/28 04:15:43;;;;;;;6.72;3.63;;;;;;;16.25;100.00;95381.00;5096527;28;20040;-76
2022/08/28 04:18:10;;;;;;;8.75;4.18;;;;;;;16.11;100.00;95381.88;5091458;28;20044;-76
2022/08/28 04:20:37;;;;;;;6.80;3.92;;;;;;;16.06;100.00;95379.38;5092482;28;20040;-77
2022/08/28 04:23:04;;;;;;;6.88;4.50;;;;;;;16.15;100.00;95381.25;5091100;28;20127;-76
2022/08/28 04:25:30;;;;;;;6.95;4.20;;;;;;;16.15;100.00;95386.56;5095398;28;20506;-76
2022/08/28 04:27:56;;;;;;;7.03;3.97;;;;;;;16.22;100.00;95386.88;5097081;28;20044;-76
2022/08/28 04:30:22;;;;;;;7.38;3.80;;;;;;;16.28;100.00;95391.00;5088442;28;20040;-76
2022/08/28 04:32:48;;;;;;;6.93;3.97;;;;;;;16.27;100.00;95384.09;5093291;28;20505;-76
2022/08/28 04:35:14;;;;;;;6.47;3.90;;;;;;;16.13;100.00;95388.75;5094640;28;20096;-76
2022/08/28 04:37:39;;;;;;;6.32;3.92;;;;;;;16.17;100.00;95384.38;5094768;28;20036;-77
2022/08/28 04:40:08;;;;;;;6.40;4.22;;;;;;;16.28;100.00;95388.34;5083963;28;20032;-77
2022/08/28 04:42:34;;;;;;;6.82;4.05;;;;;;;16.23;100.00;95393.78;5088997;28;20040;-77
2022/08/28 04:44:59;;;;;;;6.95;3.92;;;;;;;16.32;100.00;95386.63;5101237;28;20421;-77
2022/08/28 04:47:26;;;;;;;6.07;3.97;;;;;;;16.39;100.00;95397.59;5073445;28;20058;-77
2022/08/28 04:49:52;;;;;;;6.03;3.88;;;;;;;16.35;100.00;95386.00;5088085;28;20560;-77
2022/08/28 04:52:18;;;;;;;6.63;3.83;;;;;;;16.37;100.00;95394.44;5090995;28;20517;-76
2022/08/28 04:54:44;;;;;;;5.22;3.70;;;;;;;16.32;100.00;95393.78;5094076;28;20042;-77
2022/08/28 04:57:09;;;;;;;6.53;3.80;;;;;;;16.35;100.00;95393.97;5091851;28;20112;-76
2022/08/28 04:59:35;;;;;;;10.32;4.00;;;;;;;16.29;100.00;95392.53;5093769;28;20039;-77
2022/08/28 05:02:01;;;;;;;8.93;3.92;;;;;;;16.31;100.00;95395.69;5087523;28;20494;-77
2022/08/28 05:04:26;;;;;;;7.85;3.60;;;;;;;16.27;100.00;95394.72;5093118;28;20037;-77
2022/08/28 05:06:52;;;;;;;6.85;4.10;;;;;;;16.23;100.00;95399.09;5094276;28;20470;-77
2022/08/28 05:09:19;;;;;;;5.68;3.63;;;;;;;16.37;100.00;95397.09;5093974;28;20085;-76
2022/08/28 05:11:46;;;;;;;6.78;4.30;;;;;;;16.32;100.00;95401.75;5092069;28;20517;-76
2022/08/28 05:14:13;;;;;;;5.65;3.85;;;;;;;16.24;100.00;95406.75;5090720;28;20071;-76
2022/08/28 05:16:48;;;;;;;7.30;4.40;;;;;;;16.28;100.00;95406.91;5103546;28;20113;-77
2022/08/28 05:19:15;;;;;;;8.73;4.60;;;;;;;16.17;100.00;95410.94;5087962;28;20395;-77
2022/08/28 05:21:41;;;;;;;10.27;6.00;;;;;;;16.21;100.00;95411.91;5089633;28;20036;-77
2022/08/28 05:24:07;;;;;;;8.50;5.70;;;;;;;16.38;100.00;95411.94;5092279;28;20069;-78
2022/08/28 05:26:34;;;;;;;10.20;5.60;;;;;;;16.32;100.00;95413.19;5084728;28;20151;-77
2022/08/28 05:28:59;;;;;;;9.57;5.93;;;;;;;16.21;100.00;95419.84;5091006;28;20036;-77
2022/08/28 05:31:27;;;;;;;11.20;6.38;;;;;;;16.26;100.00;95417.03;5091659;28;20049;-77
2022/08/28 05:33:53;;;;;;;10.27;6.65;;;;;;;16.25;100.00;95412.84;5091909;28;20040;-77
2022/08/28 05:36:22;;;;;;;11.25;7.10;;;;;;;16.35;100.00;95417.88;5087783;28;20064;-77
2022/08/28 05:38:49;;;;;;;11.68;7.10;;;;;;;16.26;100.00;95414.41;5088975;28;20040;-77
2022/08/28 05:41:19;;;;;;;12.20;7.22;;;;;;;16.34;100.00;95416.31;5078937;28;20051;-77
2022/08/28 05:43:45;;;;;;;10.88;6.57;;;;;;;16.41;100.00;95424.59;5092268;28;20452;-78
2022/08/28 05:46:11;;;;;;;11.75;7.57;;;;;;;16.45;100.00;95425.56;5087085;28;20047;-77
2022/08/28 05:48:38;;;;;;;12.07;7.22;;;;;;;16.42;100.00;95428.81;5089154;28;20035;-77
2022/08/28 05:51:13;;;;;;;11.90;7.25;;;;;;;16.42;100.00;95433.34;5086527;28;20051;-77
2022/08/28 05:53:42;;;;;;;13.38;6.82;;;;;;;16.51;100.00;95425.41;5086104;28;20067;-77
2022/08/28 05:56:13;;;;;;;9.60;6.40;;;;;;;16.47;100.00;95424.47;5089681;28;20044;-77
2022/08/28 05:58:39;;;;;;;9.80;6.13;;;;;;;16.49;100.00;95431.00;5082043;28;20040;-77
2022/08/28 06:01:10;;;;;;;10.70;6.40;;;;;;;16.45;100.00;95428.22;5082984;28;20048;-76
2022/08/28 06:03:37;;;;;;;10.85;6.18;;;;;;;16.62;100.00;95429.31;5089808;28;20036;-76
2022/08/28 06:06:03;;;;;;;11.25;6.03;;;;;;;16.59;100.00;95433.41;5088066;28;20047;-76
2022/08/28 06:08:30;;;;;;;9.00;6.28;;;;;;;16.56;100.00;95430.56;5089069;28;20836;-77
2022/08/28 06:10:56;;;;;;;9.25;5.90;;;;;;;16.56;100.00;95433.22;5085525;28;20039;-77
2022/08/28 06:13:22;;;;;;;10.38;6.70;;;;;;;16.62;100.00;95431.97;5087861;28;20083;-77
2022/08/28 06:15:47;;;;;;;10.07;6.47;;;;;;;16.58;100.00;95436.38;5088827;28;20085;-77
2022/08/28 06:18:14;;;;;;;9.23;6.32;;;;;;;16.48;100.00;95440.09;5088368;28;20064;-77
2022/08/28 06:20:43;;;;;;;10.38;6.55;;;;;;;16.60;100.00;95439.50;5087286;28;20071;-77
2022/08/28 06:23:10;;;;;;;11.98;6.65;;;;;;;16.71;100.00;95435.47;5087673;28;20093;-77
2022/08/28 06:25:38;;;;;;;9.50;5.80;;;;;;;16.66;100.00;95443.56;5088358;28;20406;-76
2022/08/28 06:28:03;;;;;;;13.65;6.78;;;;;;;16.75;100.00;95447.03;5088333;28;20089;-77
2022/08/28 06:30:28;;;;;;;13.13;6.82;;;;;;;16.76;100.00;95443.25;5087217;28;20048;-77
2022/08/28 06:32:54;;;;;;;12.80;6.65;;;;;;;16.70;100.00;95444.50;5086828;28;20051;-76
2022/08/28 06:35:19;;;;;;;12.77;7.10;;;;;;;16.77;100.00;95444.84;5088438;28;20044;-76
2022/08/28 06:37:45;;;;;;;11.65;6.80;;;;;;;16.77;100.00;95444.84;5086650;28;20100;-77
2022/08/28 06:40:10;;;;;;;11.73;6.80;;;;;;;16.80;100.00;95444.22;5090768;28;20039;-76
2022/08/28 06:42:36;;;;;;;9.82;6.35;;;;;;;16.78;100.00;95451.72;5086759;28;20560;-77
2022/08/28 06:45:01;;;;;;;11.90;6.22;;;;;;;16.92;100.00;95445.50;5086924;28;20490;-77
2022/08/28 06:47:27;;;;;;;14.98;7.95;;;;;;;16.81;100.00;95450.31;5088151;28;20065;-77
2022/08/28 06:49:53;;;;;;;12.52;7.35;;;;;;;16.87;100.00;95448.31;5085425;28;20044;-77
2022/08/28 06:52:19;;;;;;;14.38;7.75;;;;;;;16.85;100.00;95450.47;5089598;28;20052;-77
2022/08/28 06:54:44;;;;;;;13.57;7.60;;;;;;;16.98;100.00;95460.22;5087307;28;20050;-77
2022/08/28 06:57:10;;;;;;;14.18;8.32;;;;;;;17.03;100.00;95452.09;5089226;28;20040;-78
2022/08/28 06:59:35;;;;;;;13.27;7.72;;;;;;;17.01;100.00;95448.97;5084603;28;20032;-76
2022/08/28 07:02:01;;;;;;;17.02;8.77;;;;;;;17.04;100.00;95452.88;5089988;28;20214;-75
2022/08/28 07:04:26;;;;;;;14.25;8.88;;;;;;;16.92;100.00;95461.47;5092024;28;20391;-76
2022/08/28 07:06:52;;;;;;;14.10;8.75;;;;;;;17.03;100.00;95454.75;5090191;28;20062;-75
2022/08/28 07:09:18;;;;;;;16.35;9.20;;;;;;;16.92;100.00;95466.78;5089640;28;20047;-75
2022/08/28 07:11:47;;;;;;;18.25;9.65;;;;;;;16.92;100.00;95456.16;5089528;28;20044;-75
2022/08/28 07:14:12;;;;;;;19.75;10.32;;;;;;;17.04;100.00;95461.63;5091237;28;20119;-75
2022/08/28 07:16:38;;;;;;;17.20;9.57;;;;;;;16.96;100.00;95467.72;5092506;28;20043;-75
2022/08/28 07:19:06;;;;;;;18.50;9.93;;;;;;;17.01;100.00;95464.94;5090874;28;20456;-76
2022/08/28 07:21:35;;;;;;;21.25;10.77;;;;;;;17.09;100.00;95466.78;5089830;28;20506;-76
2022/08/28 07:24:03;;;;;;;21.08;10.80;;;;;;;17.16;100.00;95465.56;5092211;28;20115;-75
2022/08/28 07:26:28;;;;;;;19.67;11.38;;;;;;;17.12;100.00;95470.72;5091109;28;20062;-76
2022/08/28 07:28:54;;;;;;;17.70;10.13;;;;;;;17.18;100.00;95474.00;5089905;28;20040;-76
2022/08/28 07:31:25;;;;;;;22.40;10.50;;;;;;;17.33;100.00;95476.19;5091117;28;20078;-77
2022/08/28 07:33:53;;;;;;;25.30;12.18;;;;;;;17.16;100.00;95473.53;5093463;28;20040;-77
2022/08/28 07:36:22;;;;;;;21.98;11.93;;;;;;;17.31;100.00;95478.38;5093362;28;20055;-80
2022/08/28 07:38:49;;;;;;;38.90;17.20;;;;;;;17.24;100.00;95472.75;5090626;28;20043;-77
2022/08/28 07:41:20;;;;;;;29.05;15.63;;;;;;;17.08;100.00;95480.41;5085872;28;20422;-79
2022/08/28 07:46:31;;;;;;;26.65;14.43;;;;;;;16.92;100.00;95482.72;5090621;28;20406;-78
2022/08/28 07:48:57;;;;;;;29.85;15.85;;;;;;;17.13;100.00;95483.69;5091191;28;20157;-78
2022/08/28 07:51:23;;;;;;;31.88;16.08;;;;;;;17.10;100.00;95484.31;5091797;28;20059;-78
2022/08/28 07:53:49;;;;;;;31.77;15.30;;;;;;;17.03;100.00;95484.00;5093436;28;20043;-78
2022/08/28 07:56:15;;;;;;;31.75;16.15;;;;;;;17.09;100.00;95481.97;5092558;28;20040;-77
2022/08/28 07:58:40;;;;;;;28.17;15.93;;;;;;;17.12;100.00;95492.78;5090728;28;20443;-77
2022/08/28 08:01:06;;;;;;;30.63;15.85;;;;;;;17.03;100.00;95489.31;5091252;28;20040;-80
2022/08/28 08:03:32;;;;;;;33.95;16.52;;;;;;;17.09;100.00;95493.38;5089925;28;20032;-79
2022/08/28 08:06:01;;;;;;;32.88;15.73;;;;;;;17.18;100.00;95489.94;5092687;28;20169;-79
2022/08/28 08:08:29;;;;;;;29.75;16.08;;;;;;;17.24;100.00;95494.00;5088577;28;20040;-79
2022/08/28 08:10:56;;;;;;;31.48;16.15;;;;;;;17.22;100.00;95496.22;5091298;28;20117;-78
2022/08/28 08:13:22;;;;;;;36.75;17.40;;;;;;;17.14;100.00;95501.22;5088292;28;20093;-77
2022/08/28 08:15:47;;;;;;;34.30;17.30;;;;;;;17.04;100.00;95506.84;5091899;28;20123;-78
2022/08/28 08:18:12;;;;;;;35.80;18.17;;;;;;;17.07;100.00;95503.56;5094751;28;20040;-78
2022/08/28 08:20:38;;;;;;;36.92;18.60;;;;;;;17.00;100.00;95511.19;5103961;28;20062;-77
2022/08/28 08:23:04;;;;;;;32.03;16.20;;;;;;;16.76;100.00;95512.34;5090517;28;20082;-78
2022/08/28 08:25:29;;;;;;;27.73;16.77;;;;;;;16.62;100.00;95511.69;5099936;28;20042;-77
2022/08/28 08:27:54;;;;;;;29.40;15.60;;;;;;;16.60;100.00;95513.88;5104840;28;20416;-77
2022/08/28 08:30:20;;;;;;;31.52;16.35;;;;;;;16.61;100.00;95518.88;5083876;28;20401;-78
2022/08/28 08:32:45;;;;;;;32.60;15.43;;;;;;;16.66;100.00;95520.59;5094000;27;20039;-77
2022/08/28 08:35:11;;;;;;;23.48;13.38;;;;;;;16.75;100.00;95521.44;5095054;28;20028;-77
2022/08/28 08:37:37;;;;;;;23.17;11.68;;;;;;;16.62;100.00;95522.31;5109106;27;20043;-78
2022/08/28 08:40:03;;;;;;;18.42;10.23;;;;;;;16.59;100.00;95525.59;5102129;28;20036;-77
2022/08/28 08:42:31;;;;;;;17.80;9.55;;;;;;;16.54;100.00;95526.50;5108933;28;20122;-77
2022/08/28 08:45:02;;;;;;;27.52;10.48;;;;;;;16.64;100.00;95530.78;5089877;28;20036;-77
2022/08/28 08:47:48;;;;;;;18.35;9.75;;;;;;;16.64;100.00;95538.75;5106628;28;20047;-78
2022/08/28 08:50:19;;;;;;;19.15;10.25;;;;;;;16.61;100.00;95539.38;5091576;28;20070;-78
2022/08/28 08:53:12;;;;;;;20.30;10.80;;;;;;;16.56;100.00;95534.19;5092346;28;20040;-80
2022/08/28 08:55:48;;;;;;;18.38;10.30;;;;;;;16.51;100.00;95534.31;5090833;28;20040;-81
2022/08/28 08:58:37;;;;;;;21.50;11.30;;;;;;;16.49;100.00;95541.81;5092219;28;20052;-80
2022/08/28 09:01:31;;;;;;;25.05;10.85;;;;;;;16.53;100.00;95545.41;5088105;28;20509;-80
2022/08/28 09:04:19;;;;;;;18.67;10.95;;;;;;;16.60;100.00;95545.75;5081988;28;20086;-77
2022/08/28 09:06:58;;;;;;;22.67;11.85;;;;;;;16.66;100.00;95544.53;5088496;28;20040;-81
2022/08/28 09:09:33;;;;;;;28.58;13.40;;;;;;;16.60;100.00;95545.75;5088634;28;20044;-78
2022/08/28 09:12:02;;;;;;;31.67;13.80;;;;;;;16.67;100.00;95556.72;5088159;28;20089;-77
2022/08/28 09:14:49;;;;;;;26.50;13.27;;;;;;;16.64;100.00;95552.03;5086247;28;20040;-78
2022/08/28 09:17:18;;;;;;;26.88;13.07;;;;;;;16.69;100.00;95562.50;5086939;28;20520;-79
2022/08/28 09:19:44;;;;;;;26.58;13.35;;;;;;;16.67;100.00;95556.72;5086440;28;20094;-79
2022/08/28 09:22:10;;;;;;;24.88;13.27;;;;;;;16.67;100.00;95561.25;5080144;28;20048;-76
2022/08/28 09:24:38;;;;;;;36.85;12.95;;;;;;;16.67;100.00;95562.03;5089793;28;20047;-77
2022/08/28 09:27:08;;;;;;;24.02;12.73;;;;;;;16.54;100.00;95562.94;5085925;28;20037;-77
2022/08/28 09:29:45;;;;;;;23.75;13.38;;;;;;;16.54;100.00;95561.03;5087793;28;20039;-77
2022/08/28 09:32:24;;;;;;;24.90;13.10;;;;;;;16.51;100.00;95558.22;5091698;28;20085;-78
2022/08/28 09:35:13;;;;;;;26.13;13.80;;;;;;;16.55;100.00;95564.47;5089438;28;20040;-80
2022/08/28 09:37:40;;;;;;;23.83;13.27;;;;;;;16.54;100.00;95565.59;5085005;28;20091;-76
2022/08/28 09:40:25;;;;;;;23.67;13.00;;;;;;;16.54;100.00;95569.03;5088955;28;20031;-81
2022/08/28 09:43:30;;;;;;;22.15;12.07;;;;;;;16.55;100.00;95565.28;5102487;28;20490;-77
2022/08/28 09:45:56;;;;;;;19.33;11.50;;;;;;;16.50;100.00;95567.28;5090917;28;20036;-77
2022/08/28 09:48:43;;;;;;;25.00;12.80;;;;;;;16.52;100.00;95557.13;5089205;28;20032;-76
2022/08/28 09:51:21;;;;;;;23.58;12.73;;;;;;;16.50;100.00;95568.06;5086284;28;20053;-76
2022/08/28 09:53:49;;;;;;;23.83;13.77;;;;;;;16.57;100.00;95567.63;5081062;28;20036;-77
2022/08/28 09:56:23;;;;;;;23.65;12.50;;;;;;;16.76;100.00;95570.81;5088352;28;20044;-76
2022/08/28 09:58:53;;;;;;;22.42;12.73;;;;;;;16.72;100.00;95575.19;5084351;28;20153;-76
2022/08/28 10:01:40;;;;;;;25.55;12.77;;;;;;;16.79;100.00;95575.53;5087087;28;20044;-77
2022/08/28 10:04:30;;;;;;;18.85;11.27;;;;;;;16.88;100.00;95582.78;5091212;28;20044;-84
2022/08/28 10:07:27;;;;;;;19.45;11.55;;;;;;;16.74;100.00;95585.53;5087942;28;20059;-78
2022/08/28 10:10:12;;;;;;;20.05;12.02;;;;;;;16.80;100.00;95586.94;5082452;28;20039;-77
2022/08/28 10:12:48;;;;;;;20.50;11.38;;;;;;;16.84;100.00;95581.78;5088077;28;20130;-77
2022/08/28 10:15:25;;;;;;;20.02;12.27;;;;;;;16.82;100.00;95587.41;5089311;28;20036;-77
2022/08/28 10:18:10;;;;;;;25.85;12.02;;;;;;;16.82;100.00;95589.28;5091010;28;20122;-76
2022/08/28 10:20:36;;;;;;;24.02;12.88;;;;;;;16.80;100.00;95587.72;5096863;28;20043;-77
2022/08/28 10:23:20;;;;;;;24.75;12.50;;;;;;;16.78;100.00;95595.22;5097784;28;20036;-80
2022/08/28 10:25:55;;;;;;;21.52;12.20;;;;;;;16.72;100.00;95596.47;5111524;28;20036;-77
2022/08/28 10:28:47;;;;;;;21.50;12.38;;;;;;;16.71;100.00;95594.88;5110514;28;20039;-76
2022/08/28 10:31:16;;;;;;;23.20;12.07;;;;;;;16.74;100.00;95594.28;5082835;28;20029;-75
2022/08/28 10:33:53;;;;;;;22.75;12.38;;;;;;;16.66;100.00;95592.34;5097250;28;20042;-77
2022/08/28 10:36:29;;;;;;;22.33;12.55;;;;;;;16.71;100.00;95594.88;5094390;28;20449;-77
2022/08/28 10:39:00;;;;;;;24.17;12.95;;;;;;;16.71;100.00;95597.53;5093950;28;20044;-76
2022/08/28 10:42:04;;;;;;;24.77;13.25;;;;;;;16.73;100.00;95603.31;5091047;28;20051;-76
2022/08/28 10:44:51;;;;;;;41.85;13.93;;;;;;;16.64;100.00;95599.84;5061998;28;20067;-77
2022/08/28 10:47:20;;;;;;;27.75;14.93;;;;;;;16.69;100.00;95597.03;5112864;28;20036;-77
2022/08/28 10:49:50;;;;;;;26.70;13.85;;;;;;;16.77;100.00;95592.88;5100505;28;20114;-76
2022/08/28 10:52:41;;;;;;;38.40;15.55;;;;;;;16.82;100.00;95602.59;5076893;28;20039;-77
2022/08/28 10:55:17;;;;;;;30.10;14.13;;;;;;;16.83;100.00;95596.97;5089338;28;20063;-77
2022/08/28 10:57:54;;;;;;;24.42;13.43;;;;;;;16.84;100.00;95595.88;5091985;28;20044;-76
2022/08/28 11:00:22;;;;;;;23.33;13.52;;;;;;;16.84;100.00;95592.41;5089105;28;20043;-76
2022/08/28 11:02:53;;;;;;;25.73;14.43;;;;;;;16.84;100.00;95597.72;5092140;28;20543;-77
2022/08/28 11:05:24;;;;;;;28.75;14.95;;;;;;;16.82;100.00;95591.94;5091519;28;20506;-77
2022/08/28 11:07:55;;;;;;;31.45;15.23;;;;;;;16.82;100.00;95597.25;5091609;28;20135;-76
2022/08/28 11:10:38;;;;;;;32.28;16.45;;;;;;;16.85;100.00;95591.34;5087986;28;20048;-77
2022/08/28 11:13:05;;;;;;;39.00;17.00;;;;;;;16.87;100.00;95597.13;5083738;28;20036;-76
2022/08/28 11:15:31;;;;;;;40.83;17.48;;;;;;;17.01;100.00;95597.84;5091171;28;20040;-77
2022/08/28 11:18:37;;;;;;;38.58;18.15;;;;;;;17.05;100.00;95593.47;5091799;28;20043;-76
2022/08/28 11:21:34;;;;;;;37.00;17.80;;;;;;;17.12;100.00;95591.16;5084084;28;20044;-77
2022/08/28 11:24:06;;;;;;;41.78;18.73;;;;;;;17.23;100.00;95598.84;5082450;28;20412;-77
2022/08/28 11:26:44;;;;;;;36.83;17.77;;;;;;;17.27;100.00;95599.78;5090736;28;20036;-77
2022/08/28 11:29:09;;;;;;;34.78;18.73;;;;;;;17.28;100.00;95598.69;5089765;28;20665;-76
2022/08/28 11:31:38;;;;;;;38.42;19.85;;;;;;;17.33;100.00;95603.88;5082923;28;20166;-77
2022/08/28 11:34:04;;;;;;;40.30;19.48;;;;;;;17.34;100.00;95600.13;5091822;28;20197;-77
2022/08/28 11:36:31;;;;;;;40.35;20.33;;;;;;;17.61;100.00;95598.25;5091296;28;20123;-77
2022/08/28 11:39:12;;;;;;;39.88;20.25;;;;;;;17.52;100.00;95600.91;5089313;28;20044;-77